Time;durP1;ratioP1;P1;durP2;ratioP2;P2;SDS_P1;SDS_P2;PMS_P1;PMS_P2;Temp;Humidity;BMP_temperature;BMP_pressure;BME280_temperature;BME280_humidity;BME280_pressure;Samples;Min_cycle;Max_cycle;Signal;HPM_P1;HPM_P2
2021/09/04 00:01:17;;;;;;;6.18;2.22;;;;;;;7.10;74.51;97672.25;5133679;27;20039;-63
2021/09/04 00:03:43;;;;;;;2.33;1.77;;;;;;;7.06;73.97;97674.59;5133733;27;20039;-62
2021/09/04 00:06:09;;;;;;;2.03;1.80;;;;;;;7.02;74.44;97676.94;5133828;27;20051;-62
2021/09/04 00:08:35;;;;;;;2.38;1.90;;;;;;;7.05;74.67;97686.97;5133449;27;20047;-61
2021/09/04 00:11:02;;;;;;;3.67;2.25;;;;;;;7.03;74.55;97683.03;5133817;27;20126;-62
2021/09/04 00:13:31;;;;;;;8.35;2.05;;;;;;;7.08;73.93;97682.25;5133413;27;20039;-63
2021/09/04 00:15:57;;;;;;;3.08;1.73;;;;;;;7.04;72.85;97690.66;5133489;27;20047;-62
2021/09/04 00:18:24;;;;;;;5.65;2.05;;;;;;;7.01;73.32;97700.91;5133617;27;20449;-62
2021/09/04 00:20:50;;;;;;;2.78;1.83;;;;;;;6.97;72.77;97700.66;5132484;27;20035;-63
2021/09/04 00:23:15;;;;;;;2.60;1.90;;;;;;;6.99;73.08;97695.09;5133205;27;20119;-62
2021/09/04 00:25:41;;;;;;;2.28;1.70;;;;;;;6.97;73.18;97692.75;5133210;27;20130;-62
2021/09/04 00:28:07;;;;;;;2.72;2.10;;;;;;;6.98;73.79;97699.59;5133144;27;20054;-63
2021/09/04 00:30:33;;;;;;;2.22;2.03;;;;;;;6.96;73.27;97693.75;5133195;27;20049;-63
2021/09/04 00:32:59;;;;;;;2.70;1.80;;;;;;;6.90;73.22;97697.41;5133143;27;20047;-62
2021/09/04 00:35:24;;;;;;;2.97;2.20;;;;;;;6.88;73.82;97701.34;5132115;27;20069;-63
2021/09/04 00:37:50;;;;;;;2.15;1.95;;;;;;;6.96;73.76;97704.31;5133029;27;20150;-62
2021/09/04 00:40:16;;;;;;;2.10;1.88;;;;;;;7.00;73.28;97692.22;5131763;27;20336;-61
2021/09/04 00:42:42;;;;;;;3.22;1.70;;;;;;;6.87;73.36;97684.75;5132472;27;20412;-63
2021/09/04 00:45:08;;;;;;;2.70;2.20;;;;;;;6.95;73.77;97701.94;5133124;27;20039;-63
2021/09/04 00:47:33;;;;;;;2.38;2.00;;;;;;;6.96;73.88;97714.06;5131607;27;20488;-62
2021/09/04 00:49:59;;;;;;;3.45;1.58;;;;;;;6.92;74.18;97710.34;5131795;27;20054;-63
2021/09/04 00:52:25;;;;;;;2.45;1.90;;;;;;;6.97;74.04;97715.63;5133016;27;20031;-62
2021/09/04 00:54:51;;;;;;;2.92;1.63;;;;;;;6.98;74.49;97712.75;5132797;27;20039;-62
2021/09/04 00:57:16;;;;;;;2.10;1.88;;;;;;;7.05;74.72;97729.13;5131701;27;20039;-62
2021/09/04 00:59:42;;;;;;;2.75;1.90;;;;;;;6.95;74.08;97729.06;5133156;27;20524;-62
2021/09/04 01:02:08;;;;;;;2.53;1.77;;;;;;;6.97;74.43;97721.72;5131721;27;20035;-63
2021/09/04 01:04:36;;;;;;;1.98;1.75;;;;;;;6.89;73.83;97730.09;5132659;27;20070;-63
2021/09/04 01:07:03;;;;;;;2.13;1.92;;;;;;;6.96;74.40;97725.38;5132473;27;20043;-63
2021/09/04 01:09:31;;;;;;;2.22;2.00;;;;;;;6.98;74.42;97728.56;5132883;27;20039;-63
2021/09/04 01:11:57;;;;;;;1.92;1.75;;;;;;;6.98;73.85;97733.03;5131252;27;20035;-62
2021/09/04 01:14:24;;;;;;;2.38;1.80;;;;;;;6.97;74.12;97729.63;5114461;27;20047;-62
2021/09/04 01:16:50;;;;;;;1.75;1.63;;;;;;;6.94;73.88;97726.69;5132434;27;20035;-64
2021/09/04 01:19:16;;;;;;;4.03;1.92;;;;;;;6.87;74.30;97728.75;5132783;27;20155;-63
2021/09/04 01:21:41;;;;;;;2.00;1.80;;;;;;;6.87;74.29;97721.63;5131166;27;20118;-64
2021/09/04 01:24:08;;;;;;;3.75;2.00;;;;;;;6.81;74.43;97739.25;5114095;28;20433;-63
2021/09/04 01:26:33;;;;;;;2.10;1.90;;;;;;;6.83;74.41;97737.16;5132174;27;20043;-62
2021/09/04 01:28:59;;;;;;;2.03;1.83;;;;;;;6.87;74.08;97741.91;5132528;27;20035;-61
2021/09/04 01:31:27;;;;;;;1.60;1.50;;;;;;;6.87;74.49;97744.56;5132261;27;20035;-62
2021/09/04 01:33:53;;;;;;;2.13;1.67;;;;;;;6.85;74.49;97746.63;5132537;27;20123;-62
2021/09/04 01:36:33;;;;;;;1.92;1.80;;;;;;;6.88;73.89;97746.13;5132201;27;20173;-63
2021/09/04 01:39:00;;;;;;;;;;;;;;;6.85;74.07;97742.16;5131658;28;20055;-62
2021/09/04 01:41:26;;;;;;;2.00;1.77;;;;;;;6.87;74.29;97747.97;5132146;27;19920;-62
2021/09/04 01:43:52;;;;;;;2.60;1.70;;;;;;;6.79;74.06;97749.25;5132276;27;20043;-62
2021/09/04 01:46:18;;;;;;;2.10;1.90;;;;;;;6.80;74.13;97753.47;5132010;27;20077;-63
2021/09/04 01:48:44;;;;;;;2.17;1.98;;;;;;;6.77;73.68;97753.19;5130978;28;20117;-63
2021/09/04 01:51:10;;;;;;;1.98;1.77;;;;;;;6.74;73.54;97757.13;5132396;27;20448;-63
2021/09/04 01:53:36;;;;;;;2.03;1.70;;;;;;;6.74;73.69;97754.47;5130718;28;20047;-62
2021/09/04 01:56:02;;;;;;;2.13;1.60;;;;;;;6.71;74.08;97760.25;5135712;27;20039;-63
2021/09/04 01:58:28;;;;;;;5.13;2.20;;;;;;;6.76;73.60;97752.38;5117508;27;20043;-63
2021/09/04 02:00:53;;;;;;;2.17;1.98;;;;;;;6.81;73.30;97754.25;5134877;27;20039;-62
2021/09/04 02:03:19;;;;;;;3.00;2.15;;;;;;;6.76;73.18;97744.47;5134751;27;20084;-62
2021/09/04 02:05:45;;;;;;;7.20;1.90;;;;;;;6.82;73.18;97755.84;5134752;27;20478;-62
2021/09/04 02:08:11;;;;;;;2.13;1.73;;;;;;;6.85;73.46;97755.31;5134666;27;20043;-60
2021/09/04 02:10:37;;;;;;;3.20;2.38;;;;;;;6.80;73.50;97755.31;5100625;27;20069;-62
2021/09/04 02:13:03;;;;;;;2.58;2.05;;;;;;;6.83;73.43;97752.16;5136322;27;20531;-62
2021/09/04 02:15:29;;;;;;;3.67;2.58;;;;;;;6.88;73.31;97762.72;5136133;27;20031;-62
2021/09/04 02:17:56;;;;;;;2.78;2.40;;;;;;;6.89;73.32;97753.78;5135791;27;20131;-62
2021/09/04 02:20:23;;;;;;;2.55;2.20;;;;;;;6.89;73.12;97763.53;5136238;27;20043;-61
2021/09/04 02:22:49;;;;;;;2.60;2.20;;;;;;;6.83;73.49;97762.72;5134678;27;20039;-62
2021/09/04 02:25:15;;;;;;;2.17;1.98;;;;;;;6.81;73.26;97759.53;5135997;27;20512;-62
2021/09/04 02:27:41;;;;;;;4.03;2.30;;;;;;;6.79;73.71;97756.34;5135857;27;20054;-62
2021/09/04 02:30:09;;;;;;;2.30;2.10;;;;;;;6.85;73.66;97768.50;5136034;27;20050;-63
2021/09/04 02:32:36;;;;;;;2.83;2.55;;;;;;;6.77;73.78;97766.34;5135760;27;20051;-63
2021/09/04 02:35:02;;;;;;;4.22;2.22;;;;;;;6.82;73.66;97771.63;5135948;27;20043;-62
2021/09/04 02:37:29;;;;;;;2.35;2.15;;;;;;;6.86;74.15;97767.47;5133924;27;20043;-62
2021/09/04 02:39:55;;;;;;;2.40;2.20;;;;;;;6.86;73.66;97758.78;5134335;27;20051;-63
2021/09/04 02:42:21;;;;;;;3.78;3.28;;;;;;;6.87;74.01;97774.31;5135211;27;20045;-63
2021/09/04 02:44:48;;;;;;;4.63;2.75;;;;;;;6.87;74.04;97778.78;5135297;27;20047;-62
2021/09/04 02:47:14;;;;;;;4.38;2.70;;;;;;;6.88;73.80;97781.16;5133848;27;20049;-64
2021/09/04 02:49:40;;;;;;;4.82;2.60;;;;;;;6.77;73.85;97772.41;5134160;27;20051;-63
2021/09/04 02:52:06;;;;;;;2.47;1.95;;;;;;;6.72;73.96;97780.25;5135186;27;20046;-62
2021/09/04 02:54:32;;;;;;;2.53;1.85;;;;;;;6.75;73.97;97784.22;5135303;27;20075;-64
2021/09/04 02:56:58;;;;;;;3.20;2.45;;;;;;;6.81;73.85;97778.75;5135284;27;20141;-61
2021/09/04 02:59:25;;;;;;;8.35;2.42;;;;;;;6.81;73.69;97777.97;5135183;27;20123;-64
2021/09/04 03:01:51;;;;;;;3.22;2.10;;;;;;;6.79;73.27;97770.31;5135148;27;20133;-62
2021/09/04 03:04:17;;;;;;;4.15;2.33;;;;;;;6.85;73.26;97784.31;5134708;27;20147;-62
2021/09/04 03:06:43;;;;;;;3.75;2.20;;;;;;;6.88;73.51;97786.44;5133656;27;20447;-63
2021/09/04 03:09:09;;;;;;;2.53;2.20;;;;;;;6.93;72.85;97781.19;5135178;27;20054;-63
2021/09/04 03:11:35;;;;;;;2.72;2.20;;;;;;;6.94;73.13;97787.25;5135069;27;20031;-63
2021/09/04 03:14:01;;;;;;;7.15;4.13;;;;;;;6.86;72.91;97795.66;5134826;27;20057;-62
2021/09/04 03:16:29;;;;;;;5.75;3.40;;;;;;;6.90;73.30;97796.72;5133487;27;20081;-63
2021/09/04 03:18:55;;;;;;;3.92;2.95;;;;;;;6.96;73.06;97800.97;5134950;27;20043;-63
2021/09/04 03:21:21;;;;;;;4.28;3.00;;;;;;;6.87;72.72;97798.03;5134731;27;20032;-63
2021/09/04 03:23:52;;;;;;;4.57;3.00;;;;;;;6.90;73.09;97794.88;5133571;27;20054;-63
2021/09/04 03:26:19;;;;;;;5.30;3.30;;;;;;;6.94;72.98;97800.44;5133360;27;20061;-63
2021/09/04 03:28:45;;;;;;;3.13;2.50;;;;;;;6.91;73.53;97800.94;5134488;27;20039;-63
2021/09/04 03:31:11;;;;;;;6.57;3.10;;;;;;;6.90;73.30;97802.00;5133220;27;20793;-64
2021/09/04 03:33:37;;;;;;;3.50;2.40;;;;;;;6.97;73.41;97805.19;5133073;27;20130;-61
2021/09/04 03:36:04;;;;;;;2.58;2.15;;;;;;;7.01;73.07;97809.72;5133016;27;20035;-63
2021/09/04 03:38:31;;;;;;;5.78;2.33;;;;;;;6.87;73.60;97805.13;5134406;27;20107;-61
2021/09/04 03:40:57;;;;;;;3.58;2.30;;;;;;;7.01;73.35;97809.72;5115715;27;20522;-63
2021/09/04 03:43:23;;;;;;;3.13;2.60;;;;;;;7.05;73.32;97813.44;5134290;27;20046;-63
2021/09/04 03:45:50;;;;;;;3.20;2.33;;;;;;;7.13;73.14;97817.44;5134245;27;20039;-63
2021/09/04 03:48:19;;;;;;;2.97;2.28;;;;;;;7.11;73.70;97821.38;5134139;27;20041;-61
2021/09/04 03:50:46;;;;;;;4.15;2.45;;;;;;;7.10;73.31;97819.78;5134030;27;20039;-63
2021/09/04 03:53:13;;;;;;;4.70;2.70;;;;;;;7.10;73.63;97825.84;5134012;27;20087;-62
2021/09/04 03:55:40;;;;;;;2.80;2.20;;;;;;;7.15;73.41;97827.75;5132683;27;20047;-63
2021/09/04 03:58:06;;;;;;;4.15;2.30;;;;;;;7.21;73.54;97838.06;5132621;27;20492;-61
2021/09/04 04:00:32;;;;;;;3.22;2.47;;;;;;;7.18;73.43;97837.78;5133931;27;20039;-63
2021/09/04 04:03:00;;;;;;;5.38;2.65;;;;;;;7.29;73.29;97839.41;5133763;27;20408;-63
2021/09/04 04:05:26;;;;;;;3.13;2.00;;;;;;;7.35;72.82;97829.69;5132492;27;20086;-63
2021/09/04 04:07:52;;;;;;;3.33;2.40;;;;;;;7.43;73.19;97837.94;5132605;27;20043;-63
2021/09/04 04:10:18;;;;;;;3.95;2.42;;;;;;;7.43;73.27;97843.19;5132632;27;20184;-62
2021/09/04 04:12:44;;;;;;;3.10;2.15;;;;;;;7.50;73.15;97841.16;5133557;27;20549;-63
2021/09/04 04:15:10;;;;;;;4.10;2.30;;;;;;;7.54;72.77;97841.44;5134114;27;20172;-63
2021/09/04 04:17:36;;;;;;;6.20;1.92;;;;;;;7.62;72.47;97837.53;5133629;27;20039;-63
2021/09/04 04:20:03;;;;;;;2.47;1.92;;;;;;;7.87;71.78;97853.47;5133873;27;20439;-62
2021/09/04 04:22:30;;;;;;;3.45;1.90;;;;;;;7.80;71.50;97852.91;5133264;27;20118;-62
2021/09/04 04:24:56;;;;;;;2.78;1.90;;;;;;;7.87;71.92;97848.19;5132224;27;20043;-62
2021/09/04 04:27:23;;;;;;;2.35;1.80;;;;;;;8.02;71.68;97854.56;5133279;27;20050;-62
2021/09/04 04:29:49;;;;;;;3.08;2.28;;;;;;;8.11;71.81;97859.09;5133130;27;20420;-62
2021/09/04 04:32:15;;;;;;;1.90;1.65;;;;;;;8.08;72.10;97861.47;5133131;27;20043;-62
2021/09/04 04:34:42;;;;;;;1.73;1.60;;;;;;;8.08;71.10;97862.25;5133546;27;20039;-64
2021/09/04 04:37:08;;;;;;;4.03;2.78;;;;;;;8.13;71.35;97872.03;5133346;27;20046;-62
2021/09/04 04:39:34;;;;;;;2.83;2.10;;;;;;;8.11;71.28;97872.28;5133369;27;20126;-62
2021/09/04 04:42:01;;;;;;;4.20;2.20;;;;;;;8.08;71.23;97864.09;5131685;27;20043;-61
2021/09/04 04:44:27;;;;;;;2.20;1.80;;;;;;;8.14;71.39;97871.78;5114875;27;20416;-63
2021/09/04 04:46:55;;;;;;;3.65;2.13;;;;;;;8.08;71.11;97869.38;5132858;27;20124;-63
2021/09/04 04:49:22;;;;;;;2.60;2.00;;;;;;;8.18;71.19;97872.88;5133161;27;20043;-63
2021/09/04 04:51:48;;;;;;;1.83;1.65;;;;;;;8.13;70.53;97872.84;5131547;27;20504;-63
2021/09/04 04:54:14;;;;;;;2.47;1.95;;;;;;;8.14;70.08;97887.59;5131793;27;20054;-63
2021/09/04 04:56:40;;;;;;;1.88;1.70;;;;;;;8.15;70.58;97886.56;5133020;27;20039;-63
2021/09/04 04:59:07;;;;;;;2.85;2.08;;;;;;;8.18;71.85;97893.19;5131554;27;20043;-62
2021/09/04 05:01:34;;;;;;;1.90;1.73;;;;;;;8.25;71.96;97895.56;5132883;27;20043;-63
2021/09/04 05:04:00;;;;;;;2.03;1.83;;;;;;;8.30;71.02;97893.75;5132451;27;20081;-63
2021/09/04 05:06:27;;;;;;;2.85;2.10;;;;;;;8.31;70.74;97897.97;5131180;27;20146;-63
2021/09/04 05:08:54;;;;;;;1.85;1.67;;;;;;;8.25;70.63;97899.00;5132901;27;20042;-63
2021/09/04 05:11:22;;;;;;;1.75;1.65;;;;;;;8.16;71.10;97900.56;5131364;27;20043;-63
2021/09/04 05:13:48;;;;;;;2.45;1.65;;;;;;;8.24;71.44;97907.19;5131218;27;20050;-63
2021/09/04 05:16:15;;;;;;;2.40;1.75;;;;;;;8.29;72.11;97910.63;5132694;27;20039;-62
2021/09/04 05:18:42;;;;;;;2.60;1.88;;;;;;;8.39;71.49;97910.72;5132537;27;20043;-62
2021/09/04 05:21:09;;;;;;;1.55;1.40;;;;;;;8.22;69.69;97917.22;5131178;27;20047;-63
2021/09/04 05:23:34;;;;;;;2.35;1.80;;;;;;;8.01;69.61;97914.47;5132088;27;20103;-63
2021/09/04 05:26:01;;;;;;;3.22;2.50;;;;;;;7.88;70.91;97918.38;5132255;27;20042;-62
2021/09/04 05:28:27;;;;;;;4.97;2.95;;;;;;;7.86;72.11;97925.75;5132253;27;20047;-64
2021/09/04 05:30:52;;;;;;;2.15;1.95;;;;;;;7.86;72.46;97925.75;5130816;27;20046;-63
2021/09/04 05:33:18;;;;;;;2.97;1.65;;;;;;;7.85;72.24;97918.06;5132152;27;20496;-62
2021/09/04 05:35:44;;;;;;;3.70;1.88;;;;;;;7.94;73.48;97922.63;5096896;28;20194;-64
2021/09/04 05:38:10;;;;;;;2.05;1.70;;;;;;;7.94;72.78;97932.38;5132230;27;20031;-64
2021/09/04 05:40:37;;;;;;;1.92;1.75;;;;;;;8.07;72.22;97931.94;5132331;27;20039;-64
2021/09/04 05:43:02;;;;;;;3.67;2.58;;;;;;;8.20;72.30;97920.88;5130805;28;20046;-65
2021/09/04 05:45:28;;;;;;;2.67;1.83;;;;;;;8.55;71.45;97929.25;5113828;28;20047;-63
2021/09/04 05:47:54;;;;;;;2.45;1.63;;;;;;;8.70;69.72;97936.41;5132038;27;20039;-64
2021/09/04 05:50:20;;;;;;;1.73;1.35;;;;;;;8.66;68.84;97943.28;5130743;28;20185;-63
2021/09/04 05:52:45;;;;;;;1.60;1.50;;;;;;;8.64;68.33;97941.69;5132016;28;20476;-64
2021/09/04 05:55:11;;;;;;;2.42;1.70;;;;;;;8.61;68.31;97949.31;5130978;27;20066;-63
2021/09/04 05:57:37;;;;;;;2.45;1.52;;;;;;;8.60;67.59;97939.84;5131908;27;20564;-62
2021/09/04 06:00:04;;;;;;;1.70;1.50;;;;;;;8.83;68.06;97949.16;5130995;28;20411;-65
2021/09/04 06:02:38;;;;;;;2.08;1.88;;;;;;;8.89;68.34;97956.03;5132130;27;20039;-63
2021/09/04 06:05:05;;;;;;;2.28;1.63;;;;;;;8.97;67.23;97947.59;5130752;28;20058;-63
2021/09/04 06:07:31;;;;;;;1.83;1.70;;;;;;;8.98;66.82;97951.81;5113383;28;20046;-61
2021/09/04 06:09:56;;;;;;;1.70;1.50;;;;;;;8.94;66.35;97947.28;5132387;27;20051;-63
2021/09/04 06:12:22;;;;;;;1.80;1.65;;;;;;;8.99;66.59;97955.25;5130632;28;20047;-64
2021/09/04 06:14:48;;;;;;;3.88;1.83;;;;;;;9.06;66.32;97955.81;5132425;27;20523;-63
2021/09/04 06:17:13;;;;;;;3.45;2.08;;;;;;;8.99;65.88;97960.53;5130443;28;20043;-63
2021/09/04 06:19:40;;;;;;;1.70;1.60;;;;;;;9.01;64.87;97964.50;5132298;27;20051;-63
2021/09/04 06:22:06;;;;;;;2.35;1.63;;;;;;;8.93;63.53;97956.28;5130707;28;20595;-64
2021/09/04 06:24:31;;;;;;;2.17;1.90;;;;;;;9.04;64.48;97956.03;5132198;27;20126;-63
2021/09/04 06:26:57;;;;;;;3.15;1.85;;;;;;;9.17;64.51;97964.53;5131703;27;20070;-63
2021/09/04 06:29:24;;;;;;;2.28;2.03;;;;;;;9.26;64.83;97958.44;5131975;27;20104;-65
2021/09/04 06:31:50;;;;;;;3.20;2.45;;;;;;;9.33;65.32;97961.63;5131762;27;20155;-64
2021/09/04 06:34:16;;;;;;;2.03;1.60;;;;;;;9.50;63.87;97958.72;5131687;27;20080;-63
2021/09/04 06:36:43;;;;;;;3.25;1.80;;;;;;;9.59;64.23;97958.19;5131947;27;20506;-64
2021/09/04 06:39:08;;;;;;;3.35;2.17;;;;;;;9.65;64.53;97959.78;5132103;27;20051;-64
2021/09/04 06:41:34;;;;;;;3.25;1.90;;;;;;;9.49;62.46;97957.13;5131117;27;20031;-63
2021/09/04 06:44:00;;;;;;;3.97;1.90;;;;;;;9.45;62.89;97957.94;5135671;27;20043;-62
2021/09/04 06:46:26;;;;;;;3.03;1.90;;;;;;;9.74;61.69;97958.97;5135141;27;20043;-62
2021/09/04 06:48:52;;;;;;;3.15;2.03;;;;;;;9.87;60.46;97962.91;5135224;27;20424;-62
2021/09/04 06:51:18;;;;;;;4.57;2.85;;;;;;;9.75;59.73;97962.41;5135152;27;20043;-63
2021/09/04 06:53:43;;;;;;;3.67;2.83;;;;;;;9.73;60.97;97954.72;5135353;27;20039;-63
2021/09/04 06:56:10;;;;;;;2.25;1.80;;;;;;;10.00;60.39;97959.72;5135043;27;20046;-62
2021/09/04 06:58:35;;;;;;;2.15;1.63;;;;;;;10.32;60.31;97960.44;5135226;27;20043;-62
2021/09/04 07:01:01;;;;;;;5.25;2.92;;;;;;;10.31;59.35;97951.72;5133713;27;20039;-63
2021/09/04 07:03:27;;;;;;;4.15;2.67;;;;;;;10.23;58.59;97961.00;5134954;27;20451;-61
2021/09/04 07:05:53;;;;;;;4.65;2.70;;;;;;;10.15;59.48;97968.72;5133268;27;20138;-64
2021/09/04 07:08:18;;;;;;;3.47;2.13;;;;;;;10.08;60.28;97973.47;5134924;27;20508;-64
2021/09/04 07:10:44;;;;;;;2.45;1.55;;;;;;;10.03;61.08;97963.69;5133606;27;20461;-65
2021/09/04 07:13:10;;;;;;;2.38;1.60;;;;;;;10.02;61.30;97964.75;5134692;27;20098;-66
2021/09/04 07:15:36;;;;;;;2.15;1.80;;;;;;;10.01;61.32;97968.47;5134363;27;20100;-65
2021/09/04 07:18:01;;;;;;;1.95;1.73;;;;;;;10.00;60.21;97969.53;5134453;27;20094;-63
2021/09/04 07:20:36;;;;;;;4.65;1.63;;;;;;;9.87;59.62;97976.16;5133472;27;20420;-62
2021/09/04 07:23:02;;;;;;;6.93;2.00;;;;;;;9.75;60.13;97976.44;5134469;27;20045;-62
2021/09/04 07:25:28;;;;;;;2.08;1.42;;;;;;;9.80;60.27;97982.78;5134607;27;20096;-59
2021/09/04 07:27:53;;;;;;;2.45;1.88;;;;;;;9.49;61.45;97975.66;5134212;27;20496;-63
2021/09/04 07:30:19;;;;;;;1.98;1.50;;;;;;;9.31;62.08;97969.03;5133298;27;20078;-64
2021/09/04 07:32:45;;;;;;;6.03;2.15;;;;;;;9.28;63.05;97969.56;5134332;27;20039;-60
2021/09/04 07:35:11;;;;;;;1.85;1.50;;;;;;;9.33;63.15;97977.50;5134755;27;20058;-60
2021/09/04 07:37:37;;;;;;;2.30;1.40;;;;;;;9.37;63.71;97975.13;5134319;27;20129;-61
2021/09/04 07:40:04;;;;;;;2.10;1.60;;;;;;;9.31;62.16;97981.47;5133105;27;20054;-63
2021/09/04 07:42:30;;;;;;;2.97;1.90;;;;;;;9.26;61.83;97987.53;5132659;27;20046;-63
2021/09/04 07:44:56;;;;;;;2.05;1.70;;;;;;;9.50;61.10;97987.84;5134600;27;20040;-64
2021/09/04 07:47:21;;;;;;;2.00;1.42;;;;;;;9.63;61.02;97981.22;5134126;27;20039;-66
2021/09/04 07:49:48;;;;;;;1.60;1.50;;;;;;;9.89;59.88;97976.69;5134288;27;20043;-64
2021/09/04 07:52:15;;;;;;;1.70;1.35;;;;;;;10.09;59.40;97983.81;5132332;27;20047;-64
2021/09/04 07:54:41;;;;;;;1.40;1.30;;;;;;;10.07;58.95;97977.97;5133841;27;20057;-64
2021/09/04 07:57:07;;;;;;;1.52;1.23;;;;;;;10.10;57.02;98005.78;5115385;27;20046;-64
2021/09/04 07:59:32;;;;;;;1.00;1.00;;;;;;;10.12;56.39;97988.56;5132772;27;20042;-64
2021/09/04 08:01:58;;;;;;;1.60;1.50;;;;;;;10.20;56.81;97977.41;5132622;27;20062;-64
2021/09/04 08:04:24;;;;;;;1.40;1.30;;;;;;;10.31;57.41;97978.22;5133211;27;20070;-65
2021/09/04 08:06:50;;;;;;;2.17;1.40;;;;;;;10.66;58.51;97987.09;5132310;27;20087;-64
2021/09/04 08:09:15;;;;;;;2.42;1.90;;;;;;;10.79;58.40;97980.41;5115174;27;20082;-62
2021/09/04 08:11:41;;;;;;;2.83;1.45;;;;;;;11.19;57.81;97995.28;5132862;27;20051;-67
2021/09/04 08:14:07;;;;;;;3.00;1.60;;;;;;;11.56;56.92;97989.47;5132134;27;20039;-65
2021/09/04 08:16:33;;;;;;;2.30;1.30;;;;;;;11.58;55.58;97989.16;5133484;27;20070;-64
2021/09/04 08:18:59;;;;;;;1.20;1.10;;;;;;;11.21;56.03;97995.81;5130403;27;20415;-63
2021/09/04 08:21:25;;;;;;;1.50;1.00;;;;;;;10.92;55.53;98003.66;5127222;27;20423;-63
2021/09/04 08:23:50;;;;;;;2.35;1.20;;;;;;;10.65;56.45;98010.16;5127768;27;20034;-63
2021/09/04 08:26:18;;;;;;;1.98;1.65;;;;;;;10.75;57.60;98008.53;5131316;27;20072;-63
2021/09/04 08:28:44;;;;;;;1.73;1.45;;;;;;;10.71;57.63;98010.94;5074142;28;20039;-64
2021/09/04 08:31:10;;;;;;;2.40;1.00;;;;;;;10.55;56.91;98020.78;5109746;28;20046;-65
2021/09/04 08:33:36;;;;;;;1.50;1.30;;;;;;;10.49;57.86;98023.72;5108106;28;20047;-65
2021/09/04 08:36:02;;;;;;;1.20;1.10;;;;;;;10.47;57.71;98016.06;5109196;28;20126;-64
2021/09/04 08:38:29;;;;;;;1.48;1.30;;;;;;;10.41;58.09;98023.22;5108030;28;20411;-65
2021/09/04 08:40:55;;;;;;;1.20;1.10;;;;;;;10.16;57.01;98021.38;5108792;28;20043;-65
2021/09/04 08:43:21;;;;;;;3.08;1.30;;;;;;;10.10;58.52;98025.09;5109404;28;20067;-66
2021/09/04 08:45:47;;;;;;;1.80;1.10;;;;;;;10.21;57.35;98021.38;5109584;28;20043;-66
2021/09/04 08:48:13;;;;;;;2.42;1.00;;;;;;;10.18;57.94;98021.91;5109562;28;20051;-65
2021/09/04 08:50:40;;;;;;;1.20;0.95;;;;;;;10.12;58.20;98025.63;5106460;28;20101;-66
2021/09/04 08:53:06;;;;;;;2.10;1.02;;;;;;;10.09;56.99;98018.22;5109792;28;20459;-63
2021/09/04 08:55:32;;;;;;;1.05;0.90;;;;;;;10.12;56.85;98014.25;5104589;28;20043;-67
2021/09/04 08:57:58;;;;;;;1.83;1.10;;;;;;;10.13;57.30;98018.47;5107673;27;20043;-69
2021/09/04 09:00:35;;;;;;;1.55;0.90;;;;;;;10.06;57.28;98015.28;5108115;27;20489;-71
2021/09/04 09:03:01;;;;;;;1.20;1.10;;;;;;;10.06;56.85;98026.69;5096844;28;20067;-69
2021/09/04 09:05:42;;;;;;;2.45;1.40;;;;;;;10.38;57.99;98020.28;5121387;27;20043;-67
2021/09/04 09:08:21;;;;;;;0.90;0.90;;;;;;;10.52;57.01;98025.81;5127725;27;20062;-68
2021/09/04 09:10:48;;;;;;;0.90;0.90;;;;;;;10.57;55.80;98033.75;5128468;27;20523;-69
2021/09/04 09:13:18;;;;;;;2.45;1.25;;;;;;;10.89;56.72;98026.22;5110192;28;20127;-71
2021/09/04 09:15:45;;;;;;;1.77;1.20;;;;;;;11.13;55.31;98022.91;5129485;27;20545;-68
2021/09/04 09:18:13;;;;;;;1.75;1.30;;;;;;;11.38;54.95;98029.91;5127203;27;20563;-67
2021/09/04 09:21:00;;;;;;;1.42;1.13;;;;;;;11.65;53.27;98016.22;5128023;27;20227;-69
2021/09/04 09:23:27;;;;;;;2.42;1.10;;;;;;;11.96;52.70;98018.63;5129302;27;20081;-69
2021/09/04 09:25:53;;;;;;;1.40;1.27;;;;;;;12.07;52.35;98014.81;5129802;27;20047;-69
2021/09/04 09:28:21;;;;;;;1.65;1.38;;;;;;;11.69;51.57;98032.34;5128725;27;20467;-70
2021/09/04 09:30:47;;;;;;;3.15;1.13;;;;;;;11.19;54.17;98053.66;5129925;27;20039;-69
2021/09/04 09:33:18;;;;;;;1.30;1.10;;;;;;;10.59;56.06;98061.59;5129056;28;20121;-65
2021/09/04 09:35:46;;;;;;;2.10;1.55;;;;;;;10.21;59.51;98065.59;5129417;27;20099;-65
2021/09/04 09:38:15;;;;;;;2.55;1.70;;;;;;;9.97;62.43;98065.34;5128671;28;20180;-66
2021/09/04 09:40:41;;;;;;;2.08;1.50;;;;;;;9.92;63.20;98057.41;5127526;28;20129;-64
2021/09/04 09:43:16;;;;;;;1.95;1.50;;;;;;;9.93;62.91;98053.69;5129668;27;20043;-65
2021/09/04 09:46:07;;;;;;;3.30;1.30;;;;;;;9.92;62.22;98052.13;5128769;27;20035;-65
2021/09/04 09:48:36;;;;;;;2.22;1.17;;;;;;;9.98;63.51;98051.06;5117606;28;20051;-65
2021/09/04 09:51:03;;;;;;;1.35;1.25;;;;;;;9.96;62.75;98042.59;5126262;28;20525;-64
2021/09/04 09:53:30;;;;;;;1.70;1.60;;;;;;;9.97;61.65;98034.38;5126422;28;20607;-65
2021/09/04 09:55:57;;;;;;;1.52;1.40;;;;;;;10.10;61.20;98050.78;5108788;28;20041;-64
2021/09/04 09:58:25;;;;;;;2.00;1.27;;;;;;;10.36;61.06;98052.38;5109260;28;20054;-66
2021/09/04 10:00:53;;;;;;;2.40;1.33;;;;;;;10.63;59.70;98041.41;5128135;27;20187;-66
2021/09/04 10:03:21;;;;;;;3.15;1.10;;;;;;;10.78;58.07;98055.69;5127755;27;20039;-66
2021/09/04 10:05:47;;;;;;;1.10;1.00;;;;;;;10.94;56.73;98057.19;5091220;28;20554;-66
2021/09/04 10:08:15;;;;;;;0.80;0.80;;;;;;;11.06;55.27;98054.22;5127619;27;20491;-66
2021/09/04 10:10:42;;;;;;;2.65;1.17;;;;;;;11.10;55.77;98055.28;5125798;28;20411;-66
2021/09/04 10:13:08;;;;;;;1.20;1.13;;;;;;;11.13;56.09;98068.78;5127181;27;20385;-66
2021/09/04 10:15:35;;;;;;;1.10;0.90;;;;;;;11.19;53.16;98079.38;5128204;27;20092;-63
2021/09/04 10:18:05;;;;;;;1.67;0.90;;;;;;;11.14;53.49;98078.31;5112226;28;20042;-65
2021/09/04 10:20:33;;;;;;;2.65;0.90;;;;;;;11.26;53.81;98079.84;5093513;28;20147;-65
2021/09/04 10:23:17;;;;;;;0.90;0.90;;;;;;;11.25;53.89;98080.94;5112590;28;20035;-65
2021/09/04 10:25:43;;;;;;;1.38;1.00;;;;;;;11.32;53.70;98073.44;5110384;28;20579;-64
2021/09/04 10:28:09;;;;;;;1.10;1.00;;;;;;;11.50;52.79;98077.31;5076839;28;20124;-66
2021/09/04 10:30:38;;;;;;;1.60;1.02;;;;;;;11.48;53.20;98082.94;5095886;28;20130;-65
2021/09/04 10:33:06;;;;;;;2.13;1.17;;;;;;;11.35;53.22;98088.81;5113470;28;20413;-66
2021/09/04 10:35:44;;;;;;;1.52;1.40;;;;;;;11.26;53.17;98087.81;5094032;28;20394;-63
2021/09/04 10:38:19;;;;;;;1.45;1.20;;;;;;;11.51;53.74;98085.03;5112817;28;20051;-66
2021/09/04 10:40:51;;;;;;;1.60;1.35;;;;;;;11.70;53.18;98081.72;5094376;28;20043;-66
2021/09/04 10:43:19;;;;;;;2.20;1.40;;;;;;;11.76;53.33;98097.31;5111430;28;20052;-66
2021/09/04 10:45:47;;;;;;;1.77;1.30;;;;;;;11.55;53.45;98112.59;5111131;28;20089;-66
2021/09/04 10:48:22;;;;;;;2.80;1.30;;;;;;;10.86;60.05;98134.66;5093075;28;20063;-64
2021/09/04 10:51:01;;;;;;;1.42;1.10;;;;;;;10.30;61.82;98132.09;5108789;28;20096;-67
2021/09/04 10:53:47;;;;;;;2.33;2.00;;;;;;;10.15;63.13;98120.44;5112149;28;20059;-62
2021/09/04 10:56:29;;;;;;;1.60;1.50;;;;;;;10.02;64.38;98121.72;5109784;28;20378;-63
2021/09/04 10:58:56;;;;;;;1.67;1.38;;;;;;;9.90;65.56;98120.41;5108491;28;20051;-63
2021/09/04 11:01:38;;;;;;;1.98;1.40;;;;;;;9.94;65.99;98119.63;5110132;28;20038;-64
2021/09/04 11:04:04;;;;;;;0.98;0.95;;;;;;;9.81;67.24;98122.00;5108448;28;20545;-63
2021/09/04 11:06:30;;;;;;;1.20;1.10;;;;;;;9.94;67.42;98109.03;5110936;28;20047;-64
2021/09/04 11:08:57;;;;;;;1.45;1.25;;;;;;;9.95;66.40;98105.31;5107247;28;20181;-63
2021/09/04 11:11:37;;;;;;;2.95;1.40;;;;;;;10.02;67.69;98110.34;5109548;28;20039;-64
2021/09/04 11:14:23;;;;;;;1.05;1.00;;;;;;;10.03;66.79;98109.31;5109212;28;20078;-65
2021/09/04 11:16:51;;;;;;;4.22;2.83;;;;;;;10.21;64.89;98111.41;5110225;28;20047;-64
2021/09/04 11:19:18;;;;;;;7.20;4.50;;;;;;;10.39;65.69;98122.56;5108492;28;20086;-63
2021/09/04 11:21:51;;;;;;;6.05;4.05;;;;;;;10.74;64.93;98115.63;5107820;28;20063;-64
2021/09/04 11:24:18;;;;;;;4.45;3.00;;;;;;;10.75;63.21;98117.97;5108875;28;20055;-65
2021/09/04 11:26:53;;;;;;;4.97;3.35;;;;;;;10.74;63.17;98120.91;5089769;28;20550;-65
2021/09/04 11:29:19;;;;;;;4.07;3.67;;;;;;;10.81;62.18;98105.50;5106547;28;20058;-64
2021/09/04 11:31:55;;;;;;;4.90;4.07;;;;;;;10.63;61.87;98115.63;5108644;28;20499;-65
2021/09/04 11:34:47;;;;;;;2.80;2.60;;;;;;;10.57;61.96;98118.56;5119088;27;20027;-67
2021/09/04 11:37:23;;;;;;;3.67;2.65;;;;;;;10.49;61.30;98113.78;5128843;27;20051;-62
2021/09/04 11:39:51;;;;;;;3.38;2.65;;;;;;;10.58;61.96;98118.28;5127167;27;20049;-62